Time;durP1;ratioP1;P1;durP2;ratioP2;P2;SDS_P1;SDS_P2;PMS_P1;PMS_P2;Temp;Humidity;BMP_temperature;BMP_pressure;BME280_temperature;BME280_humidity;BME280_pressure;Samples;Min_cycle;Max_cycle;Signal;HPM_P1;HPM_P2
2023/12/15 00:00:45;;;;;;;26.88;15.82;;;5.50;99.90;;;;;;5069877;28;20044;-70
2023/12/15 00:03:12;;;;;;;25.88;15.00;;;5.50;99.90;;;;;;5070137;28;20045;-70
2023/12/15 00:05:40;;;;;;;26.98;14.65;;;5.50;99.90;;;;;;5070488;28;20045;-70
2023/12/15 00:08:07;;;;;;;27.50;14.95;;;5.50;99.90;;;;;;5069829;28;20060;-70
2023/12/15 00:10:35;;;;;;;25.88;16.38;;;5.50;99.90;;;;;;5068540;28;20048;-70
2023/12/15 00:13:01;;;;;;;27.80;15.50;;;5.50;99.90;;;;;;5070113;28;20054;-70
2023/12/15 00:15:28;;;;;;;26.25;16.38;;;5.50;99.90;;;;;;5069972;28;20077;-70
2023/12/15 00:17:55;;;;;;;23.30;15.93;;;5.50;99.90;;;;;;5070243;28;20048;-70
2023/12/15 00:20:22;;;;;;;25.92;15.60;;;5.60;99.90;;;;;;5070184;28;20052;-70
2023/12/15 00:22:50;;;;;;;26.05;15.27;;;5.60;99.90;;;;;;5069416;28;20482;-70
2023/12/15 00:25:17;;;;;;;28.13;15.70;;;5.60;99.90;;;;;;5070205;28;20110;-71
2023/12/15 00:27:44;;;;;;;31.35;17.80;;;5.70;99.90;;;;;;5070107;28;20126;-70
2023/12/15 00:30:12;;;;;;;30.27;16.00;;;5.70;99.90;;;;;;5069738;28;20397;-70
2023/12/15 00:32:39;;;;;;;27.77;17.23;;;5.70;99.90;;;;;;5070071;28;20094;-70
2023/12/15 00:35:07;;;;;;;24.23;15.13;;;5.70;99.90;;;;;;5069302;28;20056;-70
2023/12/15 00:37:34;;;;;;;27.42;16.45;;;5.70;99.90;;;;;;5067123;28;20549;-71
2023/12/15 00:40:02;;;;;;;25.20;15.20;;;5.90;99.90;;;;;;5069982;28;20105;-71
2023/12/15 00:42:29;;;;;;;26.83;16.25;;;5.80;99.90;;;;;;5069621;28;20094;-71
2023/12/15 00:44:56;;;;;;;25.80;16.58;;;5.80;99.90;;;;;;5070377;28;20057;-71
2023/12/15 00:47:23;;;;;;;28.80;15.90;;;5.80;99.90;;;;;;5073206;28;20106;-71
2023/12/15 00:49:50;;;;;;;26.80;16.23;;;5.80;99.90;;;;;;5072825;28;20052;-71
2023/12/15 00:52:17;;;;;;;24.90;16.50;;;5.90;99.90;;;;;;5073329;28;20098;-71
2023/12/15 00:54:44;;;;;;;29.60;16.80;;;5.90;99.90;;;;;;5073279;28;20090;-71
2023/12/15 00:57:12;;;;;;;26.95;17.23;;;5.80;99.90;;;;;;5072679;28;20080;-70
2023/12/15 00:59:39;;;;;;;27.05;15.70;;;5.80;99.90;;;;;;5073396;28;20053;-70
2023/12/15 01:02:07;;;;;;;25.80;16.55;;;5.90;99.90;;;;;;5073300;28;20542;-70
2023/12/15 01:04:34;;;;;;;27.73;17.95;;;5.80;99.90;;;;;;5072554;28;20076;-70
2023/12/15 01:07:01;;;;;;;32.10;19.67;;;5.90;99.90;;;;;;5073300;28;20052;-70
2023/12/15 01:09:28;;;;;;;36.35;19.10;;;5.90;99.90;;;;;;5073302;28;20067;-70
2023/12/15 01:11:55;;;;;;;31.10;18.58;;;5.90;99.90;;;;;;5072482;28;20049;-71
2023/12/15 01:14:23;;;;;;;33.92;17.75;;;5.90;99.90;;;;;;5072962;28;20110;-71
2023/12/15 01:16:51;;;;;;;31.52;18.23;;;6.60;99.90;;;;;;5073143;28;20055;-71
2023/12/15 01:33:59;;;;;;;30.10;19.38;;;6.10;99.90;;;;;;5073470;28;19919;-71
2023/12/15 01:36:28;;;;;;;33.95;19.75;;;6.10;99.90;;;;;;5072620;28;20485;-71
2023/12/15 01:38:55;;;;;;;34.08;20.65;;;6.10;99.90;;;;;;5072787;28;20072;-71
2023/12/15 01:41:21;;;;;;;40.30;20.58;;;6.10;99.90;;;;;;5072098;28;20052;-71
2023/12/15 01:43:48;;;;;;;40.55;21.75;;;6.10;99.90;;;;;;5072144;28;20489;-72
2023/12/15 01:46:15;;;;;;;38.33;20.65;;;6.20;99.90;;;;;;5071744;28;20092;-71
2023/12/15 01:48:42;;;;;;;42.00;22.70;;;6.10;99.90;;;;;;5072217;28;20044;-71
2023/12/15 01:51:11;;;;;;;38.03;21.52;;;6.10;99.90;;;;;;5072445;28;20053;-72
2023/12/15 01:53:38;;;;;;;43.42;22.52;;;6.10;99.90;;;;;;5069939;28;20045;-71
2023/12/15 01:56:08;;;;;;;46.58;22.65;;;6.20;99.90;;;;;;5071161;28;20053;-71
2023/12/15 01:58:35;;;;;;;43.80;22.27;;;6.20;99.90;;;;;;5072264;28;20056;-71
2023/12/15 02:01:02;;;;;;;44.95;23.55;;;6.30;99.90;;;;;;5071851;28;20056;-71
2023/12/15 02:03:29;;;;;;;42.40;22.98;;;6.30;99.90;;;;;;5071799;28;20040;-71
2023/12/15 02:05:55;;;;;;;47.00;22.25;;;6.30;99.90;;;;;;5071872;28;20109;-71
2023/12/15 02:08:24;;;;;;;44.55;23.67;;;6.30;99.90;;;;;;5071187;28;20056;-71
2023/12/15 02:10:50;;;;;;;37.67;22.52;;;6.30;99.90;;;;;;5071481;28;20048;-71
2023/12/15 02:13:17;;;;;;;44.75;22.90;;;6.30;99.90;;;;;;5071513;28;20040;-71
2023/12/15 02:15:44;;;;;;;45.92;23.27;;;6.40;99.90;;;;;;5070262;28;20044;-71
2023/12/15 02:18:12;;;;;;;38.78;21.98;;;6.30;99.90;;;;;;5071276;28;20056;-71
2023/12/15 02:20:39;;;;;;;46.08;26.10;;;6.40;99.90;;;;;;5069388;28;20056;-72
2023/12/15 02:23:07;;;;;;;45.10;23.05;;;6.40;99.90;;;;;;5070546;28;20049;-70
2023/12/15 02:25:34;;;;;;;48.42;25.00;;;7.50;99.90;;;;;;5071469;28;20048;-71
2023/12/15 02:28:01;;;;;;;42.28;21.98;;;6.40;99.90;;;;;;5069309;28;20544;-71
2023/12/15 02:30:28;;;;;;;41.85;22.73;;;6.50;99.90;;;;;;5070035;28;20048;-71
2023/12/15 02:32:54;;;;;;;42.08;21.95;;;6.50;99.90;;;;;;5070575;28;20040;-71
2023/12/15 02:35:22;;;;;;;44.88;22.70;;;6.50;99.90;;;;;;5069760;28;20052;-72
2023/12/15 02:37:48;;;;;;;37.33;20.65;;;6.40;99.90;;;;;;5070888;28;20044;-71
2023/12/15 02:40:17;;;;;;;47.28;21.15;;;6.40;99.90;;;;;;5070879;28;20048;-70
2023/12/15 02:42:44;;;;;;;40.08;21.77;;;6.30;99.90;;;;;;5069889;28;20453;-71
2023/12/15 02:45:11;;;;;;;39.55;21.55;;;6.30;99.90;;;;;;5070482;28;20052;-72
2023/12/15 02:47:37;;;;;;;43.03;22.77;;;6.30;99.90;;;;;;5070631;28;20546;-72
2023/12/15 02:50:05;;;;;;;39.38;20.40;;;6.30;99.90;;;;;;5069698;28;20044;-71
2023/12/15 02:52:32;;;;;;;38.53;20.35;;;6.30;99.90;;;;;;5070607;28;20052;-71
2023/12/15 02:54:59;;;;;;;33.53;19.15;;;6.40;99.90;;;;;;5070581;28;20075;-71
2023/12/15 02:57:27;;;;;;;36.97;19.42;;;6.40;99.90;;;;;;5070000;28;20382;-71
2023/12/15 02:59:54;;;;;;;34.10;19.50;;;6.40;99.90;;;;;;5070185;28;20055;-71
2023/12/15 03:02:21;;;;;;;41.90;20.10;;;6.40;99.90;;;;;;5069637;28;20040;-71
2023/12/15 03:04:47;;;;;;;40.85;20.92;;;6.30;99.90;;;;;;5069290;28;20063;-71
2023/12/15 03:07:14;;;;;;;34.90;19.58;;;6.50;99.90;;;;;;5069044;28;20056;-71
2023/12/15 03:09:41;;;;;;;31.13;17.08;;;6.40;99.90;;;;;;5070473;28;20037;-71
2023/12/15 03:12:08;;;;;;;35.70;20.00;;;6.30;99.90;;;;;;5068595;28;20048;-70
2023/12/15 03:14:36;;;;;;;37.35;19.85;;;6.20;99.90;;;;;;5069242;28;20093;-70
2023/12/15 03:17:04;;;;;;;32.30;18.77;;;6.20;99.90;;;;;;5067428;28;20189;-69
2023/12/15 03:19:31;;;;;;;30.35;17.95;;;6.20;99.90;;;;;;5068772;28;20134;-71
2023/12/15 03:21:58;;;;;;;35.45;19.70;;;6.00;99.90;;;;;;5069447;28;20055;-71
2023/12/15 03:24:25;;;;;;;41.72;21.17;;;6.20;99.90;;;;;;5069229;28;20464;-71
2023/12/15 03:26:51;;;;;;;39.78;21.92;;;6.00;99.90;;;;;;5069028;28;20052;-70
2023/12/15 03:29:18;;;;;;;39.83;20.90;;;5.80;99.90;;;;;;5069401;28;20109;-71
2023/12/15 03:31:46;;;;;;;36.10;19.73;;;5.80;99.90;;;;;;5068742;28;20114;-71
2023/12/15 03:34:13;;;;;;;42.80;20.02;;;5.70;99.90;;;;;;5069106;28;20057;-71
2023/12/15 03:36:40;;;;;;;48.53;22.75;;;5.70;99.90;;;;;;5068975;28;20126;-71
2023/12/15 03:39:07;;;;;;;43.15;22.13;;;5.60;99.90;;;;;;5068816;28;20497;-71
2023/12/15 03:41:34;;;;;;;35.65;20.83;;;5.60;99.90;;;;;;5069357;28;20052;-71
2023/12/15 03:44:01;;;;;;;43.55;21.70;;;5.50;99.90;;;;;;5068847;28;20114;-70
2023/12/15 03:46:28;;;;;;;42.30;22.98;;;5.50;99.90;;;;;;5068705;28;20129;-72
2023/12/15 03:48:56;;;;;;;38.95;22.45;;;5.40;99.90;;;;;;5067136;28;20048;-71
2023/12/15 03:51:23;;;;;;;42.42;21.67;;;5.40;99.90;;;;;;5069380;28;20053;-71
2023/12/15 03:53:50;;;;;;;38.53;21.70;;;5.40;99.90;;;;;;5069680;28;20098;-71
2023/12/15 03:56:24;;;;;;;46.58;23.80;;;5.30;99.90;;;;;;5070375;28;20380;-70
2023/12/15 03:58:51;;;;;;;40.28;23.52;;;5.30;99.90;;;;;;5070235;28;20052;-71
2023/12/15 04:01:18;;;;;;;45.47;23.70;;;5.30;99.90;;;;;;5069859;28;20157;-72
2023/12/15 04:03:45;;;;;;;46.13;23.38;;;5.20;99.90;;;;;;5071875;28;20048;-71
2023/12/15 04:06:14;;;;;;;40.72;21.88;;;5.20;99.90;;;;;;5071298;28;20052;-71
2023/12/15 04:08:41;;;;;;;49.55;23.65;;;5.30;99.90;;;;;;5069861;28;20342;-71
2023/12/15 04:11:08;;;;;;;42.25;24.00;;;5.30;99.90;;;;;;5070059;28;20135;-71
2023/12/15 04:13:35;;;;;;;43.08;23.58;;;5.30;99.90;;;;;;5070404;28;20045;-71
2023/12/15 04:16:03;;;;;;;43.47;21.92;;;5.20;99.90;;;;;;5069748;28;20135;-72
2023/12/15 04:18:30;;;;;;;45.20;24.15;;;5.20;99.90;;;;;;5071508;28;20048;-71
2023/12/15 04:20:57;;;;;;;39.35;21.73;;;5.20;99.90;;;;;;5073551;28;20049;-71
2023/12/15 04:23:25;;;;;;;41.00;22.20;;;5.20;99.90;;;;;;5071891;28;20041;-72
2023/12/15 04:25:52;;;;;;;40.42;22.88;;;5.20;99.90;;;;;;5073972;28;20443;-72
2023/12/15 04:28:19;;;;;;;52.28;22.98;;;5.10;99.90;;;;;;5073621;28;20055;-72
2023/12/15 04:30:46;;;;;;;42.97;22.75;;;5.10;99.90;;;;;;5074997;28;20056;-71
2023/12/15 04:33:13;;;;;;;40.78;22.05;;;5.30;99.90;;;;;;5073924;28;20052;-72
2023/12/15 04:35:40;;;;;;;42.95;21.45;;;5.00;99.90;;;;;;5073029;28;20048;-72
2023/12/15 04:38:07;;;;;;;40.47;21.13;;;4.90;99.90;;;;;;5073730;28;20098;-71
2023/12/15 04:40:35;;;;;;;35.83;20.88;;;4.90;99.90;;;;;;5073573;28;20101;-71
2023/12/15 04:43:02;;;;;;;36.33;19.52;;;5.00;99.90;;;;;;5073028;28;20049;-72
2023/12/15 04:45:29;;;;;;;35.90;21.65;;;5.00;99.90;;;;;;5073326;28;20044;-72
2023/12/15 04:47:56;;;;;;;34.47;19.73;;;5.10;99.90;;;;;;5073670;28;20165;-70
2023/12/15 04:50:23;;;;;;;35.70;20.42;;;5.10;99.90;;;;;;5071063;28;20447;-71
2023/12/15 04:52:50;;;;;;;39.83;19.45;;;5.10;99.90;;;;;;5073541;28;20052;-71
2023/12/15 04:55:17;;;;;;;43.95;21.73;;;5.10;99.90;;;;;;5073576;28;20052;-71
2023/12/15 04:57:45;;;;;;;42.30;18.60;;;5.10;99.90;;;;;;5072683;28;20124;-70
2023/12/15 05:00:13;;;;;;;44.35;18.40;;;5.10;99.90;;;;;;5073154;28;20090;-70
2023/12/15 05:02:40;;;;;;;41.25;19.08;;;5.10;99.90;;;;;;5073202;28;20052;-70
2023/12/15 05:05:08;;;;;;;37.97;18.95;;;5.10;99.90;;;;;;5072716;28;20059;-70
2023/12/15 05:07:34;;;;;;;38.75;19.65;;;5.20;99.90;;;;;;5073248;28;20053;-71
2023/12/15 05:10:01;;;;;;;38.50;20.42;;;5.20;99.90;;;;;;5070914;28;20056;-71
2023/12/15 05:12:28;;;;;;;40.00;20.08;;;5.30;99.90;;;;;;5073130;28;20056;-71
2023/12/15 05:14:56;;;;;;;39.58;17.55;;;5.20;99.90;;;;;;5073268;28;20106;-71
2023/12/15 05:17:23;;;;;;;43.00;19.40;;;5.10;99.90;;;;;;5067002;28;20956;-71
2023/12/15 05:19:50;;;;;;;35.92;19.00;;;5.10;99.90;;;;;;5069465;28;20052;-71
2023/12/15 05:22:17;;;;;;;40.05;19.60;;;5.00;99.90;;;;;;5070393;28;20052;-70
2023/12/15 05:24:44;;;;;;;43.40;22.02;;;5.00;99.90;;;;;;5071018;28;20056;-71
2023/12/15 05:27:11;;;;;;;44.55;19.83;;;5.00;99.90;;;;;;5071015;28;20056;-70
2023/12/15 05:29:44;;;;;;;42.92;20.67;;;4.90;99.90;;;;;;5105374;28;20056;-70
2023/12/15 05:32:13;;;;;;;35.22;20.27;;;4.90;99.90;;;;;;5070796;28;20094;-71
2023/12/15 05:34:40;;;;;;;43.75;19.88;;;4.80;99.90;;;;;;5072706;28;20048;-70
2023/12/15 05:37:07;;;;;;;38.75;18.10;;;4.70;99.90;;;;;;5071168;28;20055;-71
2023/12/15 05:39:34;;;;;;;39.25;20.20;;;4.70;99.90;;;;;;5067050;28;20390;-72
2023/12/15 05:42:01;;;;;;;39.30;18.25;;;4.70;99.90;;;;;;5069730;28;20492;-71
2023/12/15 05:44:28;;;;;;;38.28;17.90;;;4.60;99.90;;;;;;5068804;28;20057;-71
2023/12/15 05:46:55;;;;;;;36.55;18.15;;;4.70;99.90;;;;;;5070555;28;20098;-71
2023/12/15 05:49:24;;;;;;;41.97;17.88;;;4.70;99.90;;;;;;5071801;28;20381;-70
2023/12/15 05:51:51;;;;;;;46.13;16.75;;;5.80;99.90;;;;;;5072423;28;20040;-71
2023/12/15 05:54:17;;;;;;;35.70;16.90;;;4.60;99.90;;;;;;5071069;28;20488;-70
2023/12/15 05:56:44;;;;;;;32.90;14.73;;;4.70;99.90;;;;;;5072728;28;20492;-71
2023/12/15 05:59:11;;;;;;;36.55;15.88;;;4.80;99.90;;;;;;5070790;28;20516;-70
2023/12/15 06:01:38;;;;;;;40.78;15.88;;;4.90;99.90;;;;;;5069463;28;20048;-71
2023/12/15 06:04:05;;;;;;;34.15;15.20;;;4.90;99.90;;;;;;5071064;28;20446;-71
2023/12/15 06:06:33;;;;;;;37.45;15.68;;;5.00;99.90;;;;;;5071212;28;20056;-71
2023/12/15 06:09:00;;;;;;;48.47;15.95;;;4.90;99.90;;;;;;5070628;28;20067;-70
2023/12/15 06:11:27;;;;;;;40.60;15.75;;;4.90;99.90;;;;;;5068017;28;20059;-71
2023/12/15 06:13:54;;;;;;;34.47;16.33;;;4.80;99.90;;;;;;5068740;28;20048;-70
2023/12/15 06:16:22;;;;;;;38.38;16.70;;;4.70;99.90;;;;;;5068109;28;20493;-70
2023/12/15 06:18:49;;;;;;;38.67;17.30;;;4.70;99.90;;;;;;5071977;28;20067;-72
2023/12/15 06:21:23;;;;;;;32.60;16.17;;;4.60;99.90;;;;;;5070224;28;20147;-70
2023/12/15 06:23:52;;;;;;;35.35;17.05;;;4.60;99.90;;;;;;5070409;28;20246;-71
2023/12/15 06:26:19;;;;;;;51.53;18.27;;;4.60;99.90;;;;;;5070439;28;20079;-71
2023/12/15 06:28:46;;;;;;;41.50;19.77;;;4.50;99.90;;;;;;5068915;28;20073;-71
2023/12/15 06:31:13;;;;;;;44.10;19.48;;;4.50;99.90;;;;;;5070472;28;20511;-71
2023/12/15 06:33:40;;;;;;;41.67;17.38;;;4.50;99.90;;;;;;5070243;28;20055;-71
2023/12/15 06:36:08;;;;;;;36.03;17.90;;;4.40;99.90;;;;;;5070462;28;20044;-70
2023/12/15 06:38:36;;;;;;;45.15;17.08;;;4.60;99.90;;;;;;5068055;28;20049;-71
2023/12/15 06:41:05;;;;;;;40.85;16.95;;;4.50;99.90;;;;;;5070258;28;20094;-69
2023/12/15 06:43:32;;;;;;;42.38;16.30;;;4.40;99.90;;;;;;5068364;28;20049;-70
2023/12/15 06:45:59;;;;;;;33.22;16.15;;;4.50;99.90;;;;;;5068168;28;20515;-71
2023/12/15 06:48:26;;;;;;;34.60;15.75;;;4.50;99.90;;;;;;5069641;28;20058;-71
2023/12/15 06:50:52;;;;;;;35.08;14.70;;;4.50;99.90;;;;;;5069769;28;20052;-71
2023/12/15 06:53:19;;;;;;;33.60;15.25;;;4.40;99.90;;;;;;5070548;28;20102;-71
2023/12/15 06:55:46;;;;;;;32.30;14.57;;;4.40;99.90;;;;;;5058414;28;20053;-70
2023/12/15 06:58:14;;;;;;;37.38;15.30;;;4.40;99.90;;;;;;5066809;28;20056;-72
2023/12/15 07:00:42;;;;;;;40.55;15.75;;;4.30;99.90;;;;;;5070063;28;20056;-71
2023/12/15 07:03:09;;;;;;;39.40;15.68;;;4.30;99.90;;;;;;5069637;28;20567;-71
2023/12/15 07:05:36;;;;;;;43.00;16.30;;;4.40;99.90;;;;;;5066442;28;20045;-71
2023/12/15 07:08:03;;;;;;;43.70;16.55;;;4.40;99.90;;;;;;5068014;28;20416;-70
2023/12/15 07:10:30;;;;;;;41.45;15.93;;;4.30;99.90;;;;;;5069332;28;20044;-71
2023/12/15 07:12:57;;;;;;;40.80;16.15;;;4.30;99.90;;;;;;5069666;28;20102;-71
2023/12/15 07:15:27;;;;;;;38.13;15.10;;;4.30;99.90;;;;;;5068634;28;20094;-72
2023/12/15 07:17:54;;;;;;;45.92;16.52;;;4.20;99.90;;;;;;5070415;28;20114;-71
2023/12/15 07:20:24;;;;;;;44.13;16.00;;;4.30;99.90;;;;;;5070467;28;20049;-71
2023/12/15 07:22:51;;;;;;;34.13;15.35;;;4.10;99.90;;;;;;5070341;28;20048;-71
2023/12/15 07:25:18;;;;;;;41.30;15.65;;;4.20;99.90;;;;;;5069835;28;20094;-71
2023/12/15 07:27:45;;;;;;;37.58;15.13;;;4.10;99.90;;;;;;5070286;28;20063;-71
2023/12/15 07:30:13;;;;;;;41.08;15.32;;;4.10;99.90;;;;;;5070763;28;20557;-70
2023/12/15 07:32:41;;;;;;;43.67;15.43;;;4.10;99.90;;;;;;5069317;28;20472;-70
2023/12/15 07:35:08;;;;;;;32.25;13.82;;;4.10;99.90;;;;;;5069953;28;20094;-70
2023/12/15 07:37:35;;;;;;;44.63;14.07;;;4.20;99.90;;;;;;5068008;28;20074;-72
2023/12/15 07:40:04;;;;;;;36.35;13.65;;;4.20;99.90;;;;;;5069604;28;20461;-72
2023/12/15 07:42:31;;;;;;;28.33;12.32;;;4.20;99.90;;;;;;5069669;28;20385;-70
2023/12/15 07:44:58;;;;;;;36.67;12.93;;;4.30;99.90;;;;;;5069336;28;20046;-70
2023/12/15 07:47:25;;;;;;;37.63;12.35;;;4.40;99.90;;;;;;5066787;28;20056;-70
2023/12/15 07:49:53;;;;;;;37.17;12.85;;;4.40;99.90;;;;;;5066912;28;20500;-71
2023/12/15 07:52:20;;;;;;;35.40;13.48;;;4.40;99.90;;;;;;5069365;28;20102;-71
2023/12/15 07:54:47;;;;;;;31.33;13.30;;;4.40;99.90;;;;;;5073637;28;20049;-72
2023/12/15 07:57:15;;;;;;;34.83;13.13;;;4.40;99.90;;;;;;5073540;28;20056;-72
2023/12/15 07:59:42;;;;;;;31.95;11.73;;;4.50;99.90;;;;;;5072951;28;20090;-72
2023/12/15 08:02:09;;;;;;;36.17;10.98;;;4.60;99.90;;;;;;5074300;28;20504;-71
2023/12/15 08:04:36;;;;;;;28.02;10.70;;;4.70;99.90;;;;;;5074011;28;20094;-71
2023/12/15 08:07:04;;;;;;;36.47;10.88;;;4.80;99.90;;;;;;5073906;28;20052;-71
2023/12/15 08:09:31;;;;;;;30.92;11.27;;;4.90;99.90;;;;;;5073874;28;20461;-71
2023/12/15 08:11:58;;;;;;;28.88;11.73;;;4.90;99.90;;;;;;5073300;28;20558;-70
2023/12/15 08:14:27;;;;;;;33.25;10.57;;;5.00;99.90;;;;;;5073405;28;20072;-70
2023/12/15 08:16:54;;;;;;;35.03;9.68;;;5.00;99.90;;;;;;5073986;28;20051;-71
2023/12/15 08:19:20;;;;;;;31.00;10.35;;;5.00;99.90;;;;;;5073067;28;20576;-71
2023/12/15 08:21:48;;;;;;;37.47;11.07;;;5.10;99.90;;;;;;5073202;28;20045;-71
2023/12/15 08:24:16;;;;;;;27.30;10.80;;;5.10;99.90;;;;;;5072919;28;20040;-71
2023/12/15 08:26:43;;;;;;;28.63;10.32;;;5.20;99.90;;;;;;5074253;28;20152;-70
2023/12/15 08:29:10;;;;;;;28.95;11.02;;;5.30;99.90;;;;;;5072113;28;20053;-72
2023/12/15 08:31:38;;;;;;;26.02;10.50;;;5.30;99.90;;;;;;5074240;28;20496;-72
2023/12/15 08:34:05;;;;;;;31.27;9.98;;;5.40;99.90;;;;;;5070783;28;20048;-71
2023/12/15 08:36:32;;;;;;;28.98;10.32;;;5.40;99.90;;;;;;5072874;28;20420;-71
2023/12/15 08:38:58;;;;;;;31.40;10.15;;;5.50;99.90;;;;;;5073003;28;20454;-71
2023/12/15 08:41:27;;;;;;;32.58;9.80;;;5.50;99.90;;;;;;5072111;28;20799;-70
2023/12/15 08:43:54;;;;;;;29.83;9.40;;;5.50;99.90;;;;;;5072460;28;20044;-70
2023/12/15 08:46:22;;;;;;;27.33;9.43;;;5.50;99.90;;;;;;5034533;28;20053;-71
2023/12/15 08:48:49;;;;;;;31.20;10.18;;;5.50;99.90;;;;;;5061755;28;20144;-72
2023/12/15 08:51:16;;;;;;;33.33;9.05;;;5.60;99.90;;;;;;5071957;28;20053;-71
2023/12/15 08:53:44;;;;;;;26.00;9.50;;;5.60;99.90;;;;;;5072632;28;20129;-72
2023/12/15 08:56:11;;;;;;;33.20;10.18;;;5.70;99.90;;;;;;5104474;28;20156;-72
2023/12/15 08:58:39;;;;;;;24.77;8.50;;;5.80;99.90;;;;;;5072214;28;20681;-71
2023/12/15 09:01:06;;;;;;;33.00;9.38;;;5.80;99.90;;;;;;5072041;28;20106;-71
2023/12/15 09:03:34;;;;;;;29.48;8.48;;;6.70;99.90;;;;;;5071630;28;20056;-70
2023/12/15 09:06:01;;;;;;;33.15;9.30;;;6.10;99.90;;;;;;5072162;28;20079;-71
2023/12/15 09:08:28;;;;;;;22.67;9.00;;;6.10;99.90;;;;;;5072687;28;20048;-71
2023/12/15 09:10:55;;;;;;;22.40;8.02;;;6.30;99.90;;;;;;5071442;28;20052;-71
2023/12/15 09:13:22;;;;;;;32.67;9.73;;;6.40;99.90;;;;;;5072314;28;20105;-72
2023/12/15 09:15:50;;;;;;;27.05;7.63;;;6.50;99.90;;;;;;5072532;28;20041;-71
2023/12/15 09:18:17;;;;;;;27.30;8.23;;;6.50;99.90;;;;;;5071873;28;20067;-71
2023/12/15 09:20:44;;;;;;;18.35;7.22;;;6.50;99.90;;;;;;5072375;28;20051;-71
2023/12/15 09:23:11;;;;;;;26.45;8.45;;;6.60;99.90;;;;;;5072277;28;20122;-71
2023/12/15 09:25:38;;;;;;;24.88;8.82;;;6.70;99.90;;;;;;5071656;28;20044;-72
2023/12/15 09:28:05;;;;;;;24.33;9.13;;;6.70;99.90;;;;;;5072126;28;20040;-72
2023/12/15 09:30:32;;;;;;;19.45;7.43;;;6.70;99.90;;;;;;5070986;28;20056;-72
2023/12/15 09:33:01;;;;;;;26.83;7.43;;;6.90;99.90;;;;;;5072405;28;20121;-71
2023/12/15 09:35:27;;;;;;;23.63;6.93;;;7.00;99.90;;;;;;5071692;28;20094;-71
2023/12/15 09:37:54;;;;;;;24.70;7.47;;;7.10;99.90;;;;;;5071861;28;20103;-71
2023/12/15 09:40:23;;;;;;;19.85;7.35;;;7.20;99.90;;;;;;5071673;28;20060;-71
2023/12/15 09:42:51;;;;;;;24.88;7.78;;;7.40;99.90;;;;;;5071632;28;20085;-71
2023/12/15 09:45:18;;;;;;;19.38;7.22;;;7.60;99.90;;;;;;5068981;28;20049;-71
2023/12/15 09:47:47;;;;;;;18.85;6.60;;;7.90;99.90;;;;;;5073259;28;20075;-71
2023/12/15 09:50:18;;;;;;;22.15;6.38;;;8.10;99.90;;;;;;5071683;28;20539;-71
2023/12/15 09:52:44;;;;;;;;;;;8.30;99.90;;;;;;5072163;28;20075;-72
2023/12/15 09:55:11;;;;;;;17.42;6.50;;;8.70;99.90;;;;;;5071606;28;19967;-71
2023/12/15 09:57:40;;;;;;;20.00;6.40;;;8.90;99.90;;;;;;5072091;28;20454;-71
2023/12/15 10:00:08;;;;;;;17.27;6.45;;;9.20;99.90;;;;;;5070691;28;20084;-71
2023/12/15 10:02:36;;;;;;;20.50;6.68;;;9.20;99.90;;;;;;5071514;28;20106;-71
2023/12/15 10:05:03;;;;;;;18.60;6.35;;;9.20;99.90;;;;;;5071149;28;20068;-71
2023/12/15 10:07:31;;;;;;;27.00;7.55;;;9.30;99.90;;;;;;5071161;28;20074;-71
2023/12/15 10:09:58;;;;;;;21.45;6.57;;;9.30;99.90;;;;;;5071519;28;20435;-71
2023/12/15 10:12:25;;;;;;;20.85;6.22;;;9.30;99.90;;;;;;5069509;28;20049;-71
2023/12/15 10:14:52;;;;;;;20.92;6.97;;;9.30;99.90;;;;;;5069890;28;20538;-71
2023/12/15 10:17:19;;;;;;;20.42;6.72;;;9.20;99.90;;;;;;5070398;28;20052;-71
2023/12/15 10:19:47;;;;;;;26.15;6.57;;;9.20;99.90;;;;;;5069938;28;20086;-71
2023/12/15 10:22:14;;;;;;;26.85;5.95;;;9.00;99.90;;;;;;5070936;28;20566;-71
2023/12/15 10:24:42;;;;;;;29.55;6.72;;;9.00;99.90;;;;;;5070284;28;20048;-71
2023/12/15 10:27:09;;;;;;;23.77;5.70;;;8.90;99.90;;;;;;5069980;28;20052;-71
2023/12/15 10:29:38;;;;;;;23.75;6.50;;;8.80;99.90;;;;;;5068504;28;20063;-72
2023/12/15 10:32:06;;;;;;;21.98;5.43;;;8.80;99.90;;;;;;5070900;28;20084;-71
2023/12/15 10:34:33;;;;;;;30.52;6.63;;;8.80;99.90;;;;;;5070415;28;20094;-71
2023/12/15 10:37:01;;;;;;;20.48;6.28;;;8.60;99.90;;;;;;5070974;28;20076;-71
2023/12/15 10:39:29;;;;;;;28.27;5.85;;;8.60;99.90;;;;;;5071185;28;20070;-71
2023/12/15 10:41:58;;;;;;;34.72;8.63;;;8.60;99.90;;;;;;5070327;28;20048;-70
2023/12/15 10:44:26;;;;;;;21.53;5.90;;;8.60;99.90;;;;;;5069705;28;20063;-72
2023/12/15 10:46:53;;;;;;;18.70;5.55;;;8.60;99.90;;;;;;5070482;28;20094;-71
2023/12/15 10:49:21;;;;;;;22.73;6.68;;;8.70;99.90;;;;;;5069641;28;20056;-70
2023/12/15 10:51:49;;;;;;;22.67;7.18;;;8.80;99.90;;;;;;5070828;28;20053;-70
2023/12/15 10:54:18;;;;;;;24.83;6.53;;;8.80;99.90;;;;;;5068420;28;20055;-70
2023/12/15 10:56:47;;;;;;;32.30;6.78;;;8.90;99.90;;;;;;5071115;28;20451;-70
2023/12/15 10:59:15;;;;;;;24.02;6.22;;;9.00;99.90;;;;;;5070632;28;20179;-71
2023/12/15 11:01:46;;;;;;;18.70;6.03;;;9.10;99.90;;;;;;5070152;28;20097;-71
2023/12/15 11:04:22;;;;;;;20.75;7.03;;;9.10;99.90;;;;;;5070515;28;20548;-71
2023/12/15 11:06:50;;;;;;;28.75;7.28;;;8.90;99.90;;;;;;5067227;28;20056;-70
2023/12/15 11:09:28;;;;;;;23.73;6.80;;;9.00;99.90;;;;;;5069653;28;20598;-70
2023/12/15 11:12:21;;;;;;;30.40;7.55;;;9.20;99.90;;;;;;5069961;28;20052;-71
2023/12/15 11:14:54;;;;;;;26.48;6.55;;;9.30;99.90;;;;;;5069969;28;20056;-71
2023/12/15 11:17:21;;;;;;;31.70;7.40;;;9.50;99.90;;;;;;5069693;28;20467;-71
2023/12/15 11:19:51;;;;;;;27.95;7.28;;;9.70;99.90;;;;;;5070187;28;20098;-71
2023/12/15 11:22:18;;;;;;;20.20;7.20;;;9.80;99.90;;;;;;5070378;28;20079;-71
2023/12/15 11:24:45;;;;;;;28.38;7.63;;;9.90;99.90;;;;;;5069619;28;20052;-72
2023/12/15 11:27:13;;;;;;;24.98;5.93;;;9.90;99.90;;;;;;5070001;28;20499;-72
2023/12/15 11:29:40;;;;;;;24.88;6.95;;;10.30;99.90;;;;;;5070204;28;20075;-72
2023/12/15 11:32:36;;;;;;;28.45;7.85;;;10.90;99.90;;;;;;5069810;28;20092;-72
2023/12/15 11:35:04;;;;;;;22.65;6.68;;;11.50;99.90;;;;;;5024093;28;20497;-72
2023/12/15 11:37:33;;;;;;;21.13;6.45;;;12.00;99.90;;;;;;5067489;28;20048;-71
2023/12/15 11:40:02;;;;;;;23.95;7.05;;;12.30;99.90;;;;;;5070127;28;20558;-71
2023/12/15 11:42:29;;;;;;;24.05;7.90;;;12.40;99.90;;;;;;5069692;28;20578;-71
2023/12/15 11:44:56;;;;;;;24.95;7.35;;;12.10;99.90;;;;;;5068187;28;20048;-71
2023/12/15 11:47:23;;;;;;;18.83;6.53;;;11.80;99.90;;;;;;5068447;28;20052;-73
2023/12/15 11:49:51;;;;;;;24.13;6.45;;;11.40;99.90;;;;;;5068122;28;20052;-72
2023/12/15 11:52:19;;;;;;;20.13;6.07;;;11.30;99.90;;;;;;5068675;28;20101;-72
2023/12/15 11:54:46;;;;;;;24.27;7.45;;;11.20;99.90;;;;;;5068935;28;20052;-72
2023/12/15 11:57:12;;;;;;;31.27;6.85;;;11.10;99.90;;;;;;5068625;28;20117;-71
2023/12/15 11:59:44;;;;;;;25.92;7.03;;;11.20;99.90;;;;;;5068749;28;20135;-71
2023/12/15 12:02:16;;;;;;;24.63;6.35;;;11.90;99.90;;;;;;5067374;28;20120;-73
2023/12/15 12:04:44;;;;;;;18.30;6.05;;;12.30;99.90;;;;;;5069875;28;20056;-72
2023/12/15 12:07:13;;;;;;;27.02;7.32;;;12.60;99.90;;;;;;5066643;28;20053;-71
2023/12/15 12:09:40;;;;;;;21.15;7.07;;;13.30;99.90;;;;;;5069175;28;20114;-71
2023/12/15 12:12:08;;;;;;;23.45;6.20;;;13.40;99.90;;;;;;5068598;28;20124;-71
2023/12/15 12:14:40;;;;;;;20.17;6.05;;;14.10;99.90;;;;;;5071311;28;20094;-72
2023/12/15 12:17:09;;;;;;;22.20;6.85;;;14.00;99.90;;;;;;5072345;28;20450;-71
2023/12/15 12:19:41;;;;;;;27.90;6.60;;;13.00;99.90;;;;;;5068941;28;20048;-73
2023/12/15 12:22:14;;;;;;;19.65;6.88;;;12.60;99.90;;;;;;5069212;28;20469;-70
2023/12/15 12:24:41;;;;;;;18.23;5.78;;;12.10;99.90;;;;;;5069381;28;20048;-71
2023/12/15 12:27:08;;;;;;;23.08;6.75;;;11.70;99.90;;;;;;5067027;28;20060;-71
2023/12/15 12:29:39;;;;;;;25.25;7.50;;;11.20;99.90;;;;;;5069384;28;20110;-71
2023/12/15 12:32:07;;;;;;;24.63;6.45;;;11.10;99.90;;;;;;5069646;28;20381;-72
2023/12/15 12:34:34;;;;;;;22.48;7.45;;;10.80;99.90;;;;;;5066772;28;20524;-71
2023/12/15 12:37:01;;;;;;;34.55;7.78;;;10.50;99.90;;;;;;5069138;28;20044;-72
2023/12/15 12:39:29;;;;;;;21.25;5.60;;;10.20;99.90;;;;;;5070661;28;20053;-71
2023/12/15 12:41:56;;;;;;;25.48;7.40;;;10.20;99.90;;;;;;5072748;28;20056;-71
2023/12/15 12:44:23;;;;;;;24.75;6.40;;;10.10;99.90;;;;;;5073034;28;20059;-71
2023/12/15 12:46:51;;;;;;;20.88;6.28;;;10.20;99.90;;;;;;5072734;28;20141;-70
2023/12/15 12:49:18;;;;;;;28.52;7.20;;;10.10;99.90;;;;;;5072685;28;20048;-71
2023/12/15 12:51:45;;;;;;;27.70;7.13;;;10.00;99.90;;;;;;5072834;28;20044;-71
2023/12/15 12:54:12;;;;;;;19.98;5.70;;;9.80;99.90;;;;;;5072690;28;20044;-71